Forside
METAR-TAF:

METAR-TAF

Lufthavne :

Red Wing Regional Airport

Red Wing, Minnesota, USA

Breddekreds: 44-35-25N, længdekreds: 092-29-10W, højde: 239 m

Aktuelle vejr

Denne rapport blev lavet for 15 minutter siden, kl. 19:56 UTC
Vind 6 kt fra sydsydøst
Temperatur 4°C
Fugtighed 60%
Tryk 1014 hPa
Sigt: 16.1 km
skyfri

METAR: KRGK 221956Z AUTO 16006KT 10SM CLR 04/M03 A2995 RMK AO2

Tid: 14:11 (20:11 UTC)


TAF: fraværende

Vejrobservationer og prognoser fra mere end 4000 lufthavne (METAR og TAF).

De gule og røde prikker repræsenterer de meteorologiske stationer.

Flyt musen over at se navnet på stationen.

Så klik over at se vejr observationer og prognoser.

At skifte det kort: Klik på de grønne knapper med et sort kors for at zoome ind; på den grønne knap med en bindestreg for at zoome ud; eller på de grønne pile for tilstødende kort.


METAR-TAF: